sensor_id;sensor_type;location;lat;lon;timestamp;temperature;humidity
60868;DHT22;46702;48.370;10.794;2024-03-17T00:01:36;7.50;99.90
60868;DHT22;46702;48.370;10.794;2024-03-17T00:04:02;7.60;99.90
60868;DHT22;46702;48.370;10.794;2024-03-17T00:06:28;7.60;99.90
60868;DHT22;46702;48.370;10.794;2024-03-17T00:08:54;7.70;99.90
60868;DHT22;46702;48.370;10.794;2024-03-17T00:11:20;7.70;99.90
60868;DHT22;46702;48.370;10.794;2024-03-17T00:13:46;7.80;99.90
60868;DHT22;46702;48.370;10.794;2024-03-17T00:16:13;7.80;99.90
60868;DHT22;46702;48.370;10.794;2024-03-17T00:18:39;7.80;99.90
60868;DHT22;46702;48.370;10.794;2024-03-17T00:21:05;7.80;99.90
60868;DHT22;46702;48.370;10.794;2024-03-17T00:23:30;7.80;99.90
60868;DHT22;46702;48.370;10.794;2024-03-17T00:25:56;7.80;99.90
60868;DHT22;46702;48.370;10.794;2024-03-17T00:28:22;7.80;99.90
60868;DHT22;46702;48.370;10.794;2024-03-17T00:30:47;7.80;99.90
60868;DHT22;46702;48.370;10.794;2024-03-17T00:33:13;7.80;99.90
60868;DHT22;46702;48.370;10.794;2024-03-17T00:35:39;7.80;99.90
60868;DHT22;46702;48.370;10.794;2024-03-17T00:38:05;7.80;99.90
60868;DHT22;46702;48.370;10.794;2024-03-17T00:40:39;7.70;99.90
60868;DHT22;46702;48.370;10.794;2024-03-17T00:43:07;7.60;99.90
60868;DHT22;46702;48.370;10.794;2024-03-17T00:45:33;7.50;99.90
60868;DHT22;46702;48.370;10.794;2024-03-17T00:47:58;7.50;99.90
60868;DHT22;46702;48.370;10.794;2024-03-17T00:50:24;7.40;99.90
60868;DHT22;46702;48.370;10.794;2024-03-17T00:52:50;7.40;99.90
60868;DHT22;46702;48.370;10.794;2024-03-17T00:55:15;7.40;99.90
60868;DHT22;46702;48.370;10.794;2024-03-17T00:57:41;7.30;99.90
60868;DHT22;46702;48.370;10.794;2024-03-17T01:00:08;7.40;99.90
60868;DHT22;46702;48.370;10.794;2024-03-17T01:02:41;7.40;99.90
60868;DHT22;46702;48.370;10.794;2024-03-17T01:05:07;7.30;99.90
60868;DHT22;46702;48.370;10.794;2024-03-17T01:07:33;7.30;99.90
60868;DHT22;46702;48.370;10.794;2024-03-17T01:09:59;7.30;99.90
60868;DHT22;46702;48.370;10.794;2024-03-17T01:12:26;7.10;99.90
60868;DHT22;46702;48.370;10.794;2024-03-17T01:14:52;7.00;99.90
60868;DHT22;46702;48.370;10.794;2024-03-17T01:17:17;7.10;99.90
60868;DHT22;46702;48.370;10.794;2024-03-17T01:19:45;7.10;99.90
60868;DHT22;46702;48.370;10.794;2024-03-17T01:22:11;7.10;99.90
60868;DHT22;46702;48.370;10.794;2024-03-17T01:24:36;7.10;99.90
60868;DHT22;46702;48.370;10.794;2024-03-17T01:27:05;7.10;99.90
60868;DHT22;46702;48.370;10.794;2024-03-17T01:29:30;7.10;99.90
60868;DHT22;46702;48.370;10.794;2024-03-17T01:31:56;7.10;99.90
60868;DHT22;46702;48.370;10.794;2024-03-17T01:34:22;7.10;99.90
60868;DHT22;46702;48.370;10.794;2024-03-17T01:36:47;7.10;99.90
60868;DHT22;46702;48.370;10.794;2024-03-17T01:39:13;7.00;99.90
60868;DHT22;46702;48.370;10.794;2024-03-17T01:41:41;7.00;99.90
60868;DHT22;46702;48.370;10.794;2024-03-17T01:44:07;6.90;99.90
60868;DHT22;46702;48.370;10.794;2024-03-17T01:46:33;6.80;99.90
60868;DHT22;46702;48.370;10.794;2024-03-17T01:48:59;6.80;99.90
60868;DHT22;46702;48.370;10.794;2024-03-17T01:51:25;6.70;99.90
60868;DHT22;46702;48.370;10.794;2024-03-17T01:53:50;6.50;99.90
60868;DHT22;46702;48.370;10.794;2024-03-17T01:56:16;6.50;99.90
60868;DHT22;46702;48.370;10.794;2024-03-17T01:58:45;6.60;99.90
60868;DHT22;46702;48.370;10.794;2024-03-17T02:01:14;6.60;99.90
60868;DHT22;46702;48.370;10.794;2024-03-17T02:03:40;6.60;99.90
60868;DHT22;46702;48.370;10.794;2024-03-17T02:06:07;6.50;99.90
60868;DHT22;46702;48.370;10.794;2024-03-17T02:08:52;6.50;99.90
60868;DHT22;46702;48.370;10.794;2024-03-17T02:11:30;6.50;99.90
60868;DHT22;46702;48.370;10.794;2024-03-17T02:13:56;6.50;99.90
60868;DHT22;46702;48.370;10.794;2024-03-17T02:16:25;6.50;99.90
60868;DHT22;46702;48.370;10.794;2024-03-17T02:18:58;6.50;99.90
60868;DHT22;46702;48.370;10.794;2024-03-17T02:21:24;6.50;99.90
60868;DHT22;46702;48.370;10.794;2024-03-17T02:23:51;6.50;99.90
60868;DHT22;46702;48.370;10.794;2024-03-17T02:26:17;6.40;99.90
60868;DHT22;46702;48.370;10.794;2024-03-17T02:28:44;6.30;99.90
60868;DHT22;46702;48.370;10.794;2024-03-17T02:31:11;6.30;99.90
60868;DHT22;46702;48.370;10.794;2024-03-17T02:33:37;6.30;99.90
60868;DHT22;46702;48.370;10.794;2024-03-17T02:36:04;6.20;99.90
60868;DHT22;46702;48.370;10.794;2024-03-17T02:38:33;6.20;99.90
60868;DHT22;46702;48.370;10.794;2024-03-17T02:41:17;6.10;99.90
60868;DHT22;46702;48.370;10.794;2024-03-17T02:43:44;6.10;99.90
60868;DHT22;46702;48.370;10.794;2024-03-17T02:46:18;6.00;99.90
60868;DHT22;46702;48.370;10.794;2024-03-17T02:48:45;6.10;99.90
60868;DHT22;46702;48.370;10.794;2024-03-17T02:51:16;6.20;99.90
60868;DHT22;46702;48.370;10.794;2024-03-17T02:53:42;6.20;99.90
60868;DHT22;46702;48.370;10.794;2024-03-17T02:56:09;6.20;99.90
60868;DHT22;46702;48.370;10.794;2024-03-17T02:58:35;6.10;99.90
60868;DHT22;46702;48.370;10.794;2024-03-17T03:01:02;5.90;99.90
60868;DHT22;46702;48.370;10.794;2024-03-17T03:03:28;5.80;99.90
60868;DHT22;46702;48.370;10.794;2024-03-17T03:05:54;5.60;99.90
60868;DHT22;46702;48.370;10.794;2024-03-17T03:08:22;5.60;99.90
60868;DHT22;46702;48.370;10.794;2024-03-17T03:10:48;5.60;99.90
60868;DHT22;46702;48.370;10.794;2024-03-17T03:13:14;5.50;99.90
60868;DHT22;46702;48.370;10.794;2024-03-17T03:15:40;5.50;99.90
60868;DHT22;46702;48.370;10.794;2024-03-17T03:18:05;5.50;99.90
60868;DHT22;46702;48.370;10.794;2024-03-17T03:20:31;5.40;99.90
60868;DHT22;46702;48.370;10.794;2024-03-17T03:22:57;5.40;99.90
60868;DHT22;46702;48.370;10.794;2024-03-17T03:25:22;5.50;99.90
60868;DHT22;46702;48.370;10.794;2024-03-17T03:27:48;5.50;99.90
60868;DHT22;46702;48.370;10.794;2024-03-17T03:30:14;5.60;99.90
60868;DHT22;46702;48.370;10.794;2024-03-17T03:32:41;5.80;99.90
60868;DHT22;46702;48.370;10.794;2024-03-17T03:35:08;5.80;99.90
60868;DHT22;46702;48.370;10.794;2024-03-17T03:37:33;5.80;99.90
60868;DHT22;46702;48.370;10.794;2024-03-17T03:39:59;5.80;99.90
60868;DHT22;46702;48.370;10.794;2024-03-17T03:42:25;5.80;99.90
60868;DHT22;46702;48.370;10.794;2024-03-17T03:44:50;5.90;99.90
60868;DHT22;46702;48.370;10.794;2024-03-17T03:47:16;6.00;99.90
60868;DHT22;46702;48.370;10.794;2024-03-17T03:49:42;6.00;99.90
60868;DHT22;46702;48.370;10.794;2024-03-17T03:52:08;6.00;99.90
60868;DHT22;46702;48.370;10.794;2024-03-17T03:54:35;6.00;99.90
60868;DHT22;46702;48.370;10.794;2024-03-17T03:57:01;5.90;99.90
60868;DHT22;46702;48.370;10.794;2024-03-17T03:59:28;5.90;99.90
60868;DHT22;46702;48.370;10.794;2024-03-17T04:01:54;5.90;99.90
60868;DHT22;46702;48.370;10.794;2024-03-17T04:04:20;5.90;99.90
60868;DHT22;46702;48.370;10.794;2024-03-17T04:06:45;5.90;99.90
60868;DHT22;46702;48.370;10.794;2024-03-17T04:09:12;5.90;99.90
60868;DHT22;46702;48.370;10.794;2024-03-17T04:11:38;5.90;99.90
60868;DHT22;46702;48.370;10.794;2024-03-17T04:14:03;5.80;99.90
60868;DHT22;46702;48.370;10.794;2024-03-17T04:16:31;5.90;99.90
60868;DHT22;46702;48.370;10.794;2024-03-17T04:18:57;5.90;99.90
60868;DHT22;46702;48.370;10.794;2024-03-17T04:21:23;5.90;99.90
60868;DHT22;46702;48.370;10.794;2024-03-17T04:23:48;5.90;99.90
60868;DHT22;46702;48.370;10.794;2024-03-17T04:26:14;5.80;99.90
60868;DHT22;46702;48.370;10.794;2024-03-17T04:28:40;5.60;99.90
60868;DHT22;46702;48.370;10.794;2024-03-17T04:31:06;5.40;99.90
60868;DHT22;46702;48.370;10.794;2024-03-17T04:33:33;5.50;99.90
60868;DHT22;46702;48.370;10.794;2024-03-17T04:35:59;5.60;99.90
60868;DHT22;46702;48.370;10.794;2024-03-17T04:38:25;5.60;99.90
60868;DHT22;46702;48.370;10.794;2024-03-17T04:40:50;5.70;99.90
60868;DHT22;46702;48.370;10.794;2024-03-17T04:43:17;5.80;99.90
60868;DHT22;46702;48.370;10.794;2024-03-17T04:45:42;5.80;99.90
60868;DHT22;46702;48.370;10.794;2024-03-17T04:48:10;5.70;99.90
60868;DHT22;46702;48.370;10.794;2024-03-17T04:50:35;5.60;99.90
60868;DHT22;46702;48.370;10.794;2024-03-17T04:53:01;5.60;99.90
60868;DHT22;46702;48.370;10.794;2024-03-17T04:55:27;5.60;99.90
60868;DHT22;46702;48.370;10.794;2024-03-17T04:57:52;5.60;99.90
60868;DHT22;46702;48.370;10.794;2024-03-17T05:00:18;5.70;99.90
60868;DHT22;46702;48.370;10.794;2024-03-17T05:02:45;5.70;99.90
60868;DHT22;46702;48.370;10.794;2024-03-17T05:05:10;5.70;99.90
60868;DHT22;46702;48.370;10.794;2024-03-17T05:07:39;5.70;99.90
60868;DHT22;46702;48.370;10.794;2024-03-17T05:10:05;5.70;99.90
60868;DHT22;46702;48.370;10.794;2024-03-17T05:12:32;5.70;99.90
60868;DHT22;46702;48.370;10.794;2024-03-17T05:14:57;5.70;99.90
60868;DHT22;46702;48.370;10.794;2024-03-17T05:17:23;5.70;99.90
60868;DHT22;46702;48.370;10.794;2024-03-17T05:19:49;5.70;99.90
60868;DHT22;46702;48.370;10.794;2024-03-17T05:22:14;5.70;99.90
60868;DHT22;46702;48.370;10.794;2024-03-17T05:24:40;5.70;99.90
60868;DHT22;46702;48.370;10.794;2024-03-17T05:27:06;5.70;99.90
60868;DHT22;46702;48.370;10.794;2024-03-17T05:29:31;5.70;99.90
60868;DHT22;46702;48.370;10.794;2024-03-17T05:31:57;5.70;99.90
60868;DHT22;46702;48.370;10.794;2024-03-17T05:34:23;5.70;99.90
60868;DHT22;46702;48.370;10.794;2024-03-17T05:36:50;5.70;99.90
60868;DHT22;46702;48.370;10.794;2024-03-17T05:39:16;5.70;99.90
60868;DHT22;46702;48.370;10.794;2024-03-17T05:41:42;5.70;99.90
60868;DHT22;46702;48.370;10.794;2024-03-17T05:44:09;5.70;99.90
60868;DHT22;46702;48.370;10.794;2024-03-17T05:46:35;5.60;99.90
60868;DHT22;46702;48.370;10.794;2024-03-17T05:49:00;5.60;99.90
60868;DHT22;46702;48.370;10.794;2024-03-17T05:51:26;5.70;99.90
60868;DHT22;46702;48.370;10.794;2024-03-17T05:53:53;5.60;99.90
60868;DHT22;46702;48.370;10.794;2024-03-17T05:56:21;5.60;99.90
60868;DHT22;46702;48.370;10.794;2024-03-17T05:58:48;5.40;99.90
60868;DHT22;46702;48.370;10.794;2024-03-17T06:01:14;5.40;99.90
60868;DHT22;46702;48.370;10.794;2024-03-17T06:03:39;5.40;99.90
60868;DHT22;46702;48.370;10.794;2024-03-17T06:06:06;5.40;99.90
60868;DHT22;46702;48.370;10.794;2024-03-17T06:08:38;5.40;99.90
60868;DHT22;46702;48.370;10.794;2024-03-17T06:11:06;5.50;99.90
60868;DHT22;46702;48.370;10.794;2024-03-17T06:13:33;5.60;99.90
60868;DHT22;46702;48.370;10.794;2024-03-17T06:15:59;5.60;99.90
60868;DHT22;46702;48.370;10.794;2024-03-17T06:18:28;5.60;99.90
60868;DHT22;46702;48.370;10.794;2024-03-17T06:20:54;5.70;99.90
60868;DHT22;46702;48.370;10.794;2024-03-17T06:23:23;5.70;99.90
60868;DHT22;46702;48.370;10.794;2024-03-17T06:25:49;5.70;99.90
60868;DHT22;46702;48.370;10.794;2024-03-17T06:28:17;5.70;99.90
60868;DHT22;46702;48.370;10.794;2024-03-17T06:30:54;5.80;99.90
60868;DHT22;46702;48.370;10.794;2024-03-17T06:33:19;5.90;99.90
60868;DHT22;46702;48.370;10.794;2024-03-17T06:35:45;5.90;99.90
60868;DHT22;46702;48.370;10.794;2024-03-17T06:38:12;6.00;99.90
60868;DHT22;46702;48.370;10.794;2024-03-17T06:40:38;6.00;99.90
60868;DHT22;46702;48.370;10.794;2024-03-17T06:43:05;6.00;99.90
60868;DHT22;46702;48.370;10.794;2024-03-17T06:45:31;6.10;99.90
60868;DHT22;46702;48.370;10.794;2024-03-17T06:47:57;6.00;99.90
60868;DHT22;46702;48.370;10.794;2024-03-17T06:50:23;6.10;99.90
60868;DHT22;46702;48.370;10.794;2024-03-17T06:52:48;6.10;99.90
60868;DHT22;46702;48.370;10.794;2024-03-17T06:55:14;6.10;99.90
60868;DHT22;46702;48.370;10.794;2024-03-17T06:57:43;6.00;99.90
60868;DHT22;46702;48.370;10.794;2024-03-17T07:00:13;6.00;99.90
60868;DHT22;46702;48.370;10.794;2024-03-17T07:02:40;6.00;99.90
60868;DHT22;46702;48.370;10.794;2024-03-17T07:05:07;6.10;99.90
60868;DHT22;46702;48.370;10.794;2024-03-17T07:07:33;6.10;99.90
60868;DHT22;46702;48.370;10.794;2024-03-17T07:09:58;6.20;99.90
60868;DHT22;46702;48.370;10.794;2024-03-17T07:12:24;6.30;99.90
60868;DHT22;46702;48.370;10.794;2024-03-17T07:14:50;6.30;99.90
60868;DHT22;46702;48.370;10.794;2024-03-17T07:17:17;6.40;99.90
60868;DHT22;46702;48.370;10.794;2024-03-17T07:19:44;6.40;99.90
60868;DHT22;46702;48.370;10.794;2024-03-17T07:22:09;6.50;99.90
60868;DHT22;46702;48.370;10.794;2024-03-17T07:24:35;6.60;99.90
60868;DHT22;46702;48.370;10.794;2024-03-17T07:27:01;6.70;99.90
60868;DHT22;46702;48.370;10.794;2024-03-17T07:29:27;6.70;99.90
60868;DHT22;46702;48.370;10.794;2024-03-17T07:31:52;6.80;99.90
60868;DHT22;46702;48.370;10.794;2024-03-17T07:34:18;7.00;99.90
60868;DHT22;46702;48.370;10.794;2024-03-17T07:36:45;7.10;99.90
60868;DHT22;46702;48.370;10.794;2024-03-17T07:39:11;7.20;99.90
60868;DHT22;46702;48.370;10.794;2024-03-17T07:41:40;7.30;99.90
60868;DHT22;46702;48.370;10.794;2024-03-17T07:44:06;7.40;99.90
60868;DHT22;46702;48.370;10.794;2024-03-17T07:46:32;7.50;99.90
60868;DHT22;46702;48.370;10.794;2024-03-17T07:48:58;7.70;99.90
60868;DHT22;46702;48.370;10.794;2024-03-17T07:51:23;7.80;99.90
60868;DHT22;46702;48.370;10.794;2024-03-17T07:53:49;8.00;99.90
60868;DHT22;46702;48.370;10.794;2024-03-17T07:56:16;8.10;99.90
60868;DHT22;46702;48.370;10.794;2024-03-17T07:58:43;8.20;99.90
60868;DHT22;46702;48.370;10.794;2024-03-17T08:01:13;8.30;99.90
60868;DHT22;46702;48.370;10.794;2024-03-17T08:03:41;8.40;99.90
60868;DHT22;46702;48.370;10.794;2024-03-17T08:06:09;8.50;99.90
60868;DHT22;46702;48.370;10.794;2024-03-17T08:08:36;8.60;99.90
60868;DHT22;46702;48.370;10.794;2024-03-17T08:11:03;8.70;99.90
60868;DHT22;46702;48.370;10.794;2024-03-17T08:13:29;8.80;99.90
60868;DHT22;46702;48.370;10.794;2024-03-17T08:16:01;8.90;99.90
60868;DHT22;46702;48.370;10.794;2024-03-17T08:18:27;8.80;99.90
60868;DHT22;46702;48.370;10.794;2024-03-17T08:20:53;9.00;99.90
60868;DHT22;46702;48.370;10.794;2024-03-17T08:23:21;9.10;99.90
60868;DHT22;46702;48.370;10.794;2024-03-17T08:25:55;9.20;99.90
60868;DHT22;46702;48.370;10.794;2024-03-17T08:28:21;9.40;99.90
60868;DHT22;46702;48.370;10.794;2024-03-17T08:30:59;9.40;99.90
60868;DHT22;46702;48.370;10.794;2024-03-17T08:33:28;9.60;99.90
60868;DHT22;46702;48.370;10.794;2024-03-17T08:35:59;9.80;99.90
60868;DHT22;46702;48.370;10.794;2024-03-17T08:38:26;9.80;99.90
60868;DHT22;46702;48.370;10.794;2024-03-17T08:40:54;9.90;99.90
60868;DHT22;46702;48.370;10.794;2024-03-17T08:43:21;10.00;99.90
60868;DHT22;46702;48.370;10.794;2024-03-17T08:46:04;10.00;99.90
60868;DHT22;46702;48.370;10.794;2024-03-17T08:48:34;10.00;99.90
60868;DHT22;46702;48.370;10.794;2024-03-17T08:51:01;10.10;99.90
60868;DHT22;46702;48.370;10.794;2024-03-17T08:53:28;10.40;99.90
60868;DHT22;46702;48.370;10.794;2024-03-17T08:55:55;10.60;99.90
60868;DHT22;46702;48.370;10.794;2024-03-17T08:58:22;10.60;99.90
60868;DHT22;46702;48.370;10.794;2024-03-17T09:00:47;10.80;99.90
60868;DHT22;46702;48.370;10.794;2024-03-17T09:03:13;10.80;99.90
60868;DHT22;46702;48.370;10.794;2024-03-17T09:05:44;11.00;99.90
60868;DHT22;46702;48.370;10.794;2024-03-17T09:08:28;11.20;99.90
60868;DHT22;46702;48.370;10.794;2024-03-17T09:10:54;11.30;99.90
60868;DHT22;46702;48.370;10.794;2024-03-17T09:13:22;11.30;99.90
60868;DHT22;46702;48.370;10.794;2024-03-17T09:15:56;11.50;99.90
60868;DHT22;46702;48.370;10.794;2024-03-17T09:18:23;11.40;99.90
60868;DHT22;46702;48.370;10.794;2024-03-17T09:20:59;11.60;99.90
60868;DHT22;46702;48.370;10.794;2024-03-17T09:23:26;11.60;99.90
60868;DHT22;46702;48.370;10.794;2024-03-17T09:26:03;11.60;99.90
60868;DHT22;46702;48.370;10.794;2024-03-17T09:28:30;11.50;99.90
60868;DHT22;46702;48.370;10.794;2024-03-17T09:30:57;11.40;99.90
60868;DHT22;46702;48.370;10.794;2024-03-17T09:33:24;11.30;99.90
60868;DHT22;46702;48.370;10.794;2024-03-17T09:36:07;11.50;99.90
60868;DHT22;46702;48.370;10.794;2024-03-17T09:38:34;11.20;99.90
60868;DHT22;46702;48.370;10.794;2024-03-17T09:41:00;11.40;99.90
60868;DHT22;46702;48.370;10.794;2024-03-17T09:43:28;11.40;99.90
60868;DHT22;46702;48.370;10.794;2024-03-17T09:45:54;11.60;99.90
60868;DHT22;46702;48.370;10.794;2024-03-17T09:48:24;11.60;99.90
60868;DHT22;46702;48.370;10.794;2024-03-17T09:50:55;11.70;99.90
60868;DHT22;46702;48.370;10.794;2024-03-17T09:56:14;11.70;99.90
60868;DHT22;46702;48.370;10.794;2024-03-17T09:58:45;11.60;99.90
60868;DHT22;46702;48.370;10.794;2024-03-17T10:01:11;11.50;99.90
60868;DHT22;46702;48.370;10.794;2024-03-17T10:03:51;11.50;99.90
60868;DHT22;46702;48.370;10.794;2024-03-17T10:06:19;11.50;99.90
60868;DHT22;46702;48.370;10.794;2024-03-17T10:08:49;11.30;99.90
60868;DHT22;46702;48.370;10.794;2024-03-17T10:11:17;11.50;99.90
60868;DHT22;46702;48.370;10.794;2024-03-17T10:13:44;11.70;99.90
60868;DHT22;46702;48.370;10.794;2024-03-17T10:16:39;11.50;99.90
60868;DHT22;46702;48.370;10.794;2024-03-17T10:19:15;11.70;99.90
60868;DHT22;46702;48.370;10.794;2024-03-17T10:21:45;11.90;99.90
60868;DHT22;46702;48.370;10.794;2024-03-17T10:24:23;12.10;99.90
60868;DHT22;46702;48.370;10.794;2024-03-17T10:26:51;12.40;99.90
60868;DHT22;46702;48.370;10.794;2024-03-17T10:29:24;12.40;99.90
60868;DHT22;46702;48.370;10.794;2024-03-17T10:31:52;12.50;99.90
60868;DHT22;46702;48.370;10.794;2024-03-17T10:34:18;12.70;99.90
60868;DHT22;46702;48.370;10.794;2024-03-17T10:36:45;12.40;99.90
60868;DHT22;46702;48.370;10.794;2024-03-17T10:39:33;12.40;99.90
60868;DHT22;46702;48.370;10.794;2024-03-17T10:42:01;12.30;99.90
60868;DHT22;46702;48.370;10.794;2024-03-17T10:44:31;12.30;99.90
60868;DHT22;46702;48.370;10.794;2024-03-17T10:47:00;12.40;99.90
60868;DHT22;46702;48.370;10.794;2024-03-17T10:49:32;12.30;99.90
60868;DHT22;46702;48.370;10.794;2024-03-17T10:52:04;12.40;99.90
60868;DHT22;46702;48.370;10.794;2024-03-17T10:54:30;12.80;99.90
60868;DHT22;46702;48.370;10.794;2024-03-17T10:57:02;12.80;99.90
60868;DHT22;46702;48.370;10.794;2024-03-17T10:59:39;12.80;99.90
60868;DHT22;46702;48.370;10.794;2024-03-17T11:02:23;13.10;99.90
60868;DHT22;46702;48.370;10.794;2024-03-17T11:04:58;13.20;99.90
60868;DHT22;46702;48.370;10.794;2024-03-17T11:07:24;13.40;99.90
60868;DHT22;46702;48.370;10.794;2024-03-17T11:09:54;13.10;99.90
60868;DHT22;46702;48.370;10.794;2024-03-17T11:17:56;13.40;99.90
60868;DHT22;46702;48.370;10.794;2024-03-17T11:20:57;13.10;99.90
60868;DHT22;46702;48.370;10.794;2024-03-17T11:23:27;13.20;99.90
60868;DHT22;46702;48.370;10.794;2024-03-17T11:25:54;13.50;99.90
60868;DHT22;46702;48.370;10.794;2024-03-17T11:31:43;13.60;99.90
60868;DHT22;46702;48.370;10.794;2024-03-17T11:34:31;13.30;99.90
60868;DHT22;46702;48.370;10.794;2024-03-17T11:36:58;13.40;99.90
60868;DHT22;46702;48.370;10.794;2024-03-17T11:39:49;13.50;99.90
60868;DHT22;46702;48.370;10.794;2024-03-17T11:42:16;13.70;99.90
60868;DHT22;46702;48.370;10.794;2024-03-17T11:44:43;13.80;99.90
60868;DHT22;46702;48.370;10.794;2024-03-17T11:47:10;13.90;99.90
60868;DHT22;46702;48.370;10.794;2024-03-17T11:49:38;13.70;99.90
60868;DHT22;46702;48.370;10.794;2024-03-17T11:52:24;13.70;99.90
60868;DHT22;46702;48.370;10.794;2024-03-17T11:54:50;13.80;99.90
60868;DHT22;46702;48.370;10.794;2024-03-17T11:57:20;13.50;99.90
60868;DHT22;46702;48.370;10.794;2024-03-17T11:59:54;13.50;99.90
60868;DHT22;46702;48.370;10.794;2024-03-17T12:02:27;13.40;99.90
60868;DHT22;46702;48.370;10.794;2024-03-17T12:04:54;13.60;97.40
60868;DHT22;46702;48.370;10.794;2024-03-17T12:07:23;13.50;99.90
60868;DHT22;46702;48.370;10.794;2024-03-17T12:09:50;13.40;97.90
60868;DHT22;46702;48.370;10.794;2024-03-17T12:12:26;13.30;99.90
60868;DHT22;46702;48.370;10.794;2024-03-17T12:15:02;13.60;99.90
60868;DHT22;46702;48.370;10.794;2024-03-17T12:17:31;13.60;99.90
60868;DHT22;46702;48.370;10.794;2024-03-17T12:19:58;13.60;95.90
60868;DHT22;46702;48.370;10.794;2024-03-17T12:22:25;13.60;99.90
60868;DHT22;46702;48.370;10.794;2024-03-17T12:24:54;13.70;99.90
60868;DHT22;46702;48.370;10.794;2024-03-17T12:27:21;13.90;99.90
60868;DHT22;46702;48.370;10.794;2024-03-17T12:29:52;13.80;95.50
60868;DHT22;46702;48.370;10.794;2024-03-17T12:32:25;13.60;98.20
60868;DHT22;46702;48.370;10.794;2024-03-17T12:34:56;13.40;98.50
60868;DHT22;46702;48.370;10.794;2024-03-17T12:37:28;13.30;99.90
60868;DHT22;46702;48.370;10.794;2024-03-17T12:39:59;13.50;98.50
60868;DHT22;46702;48.370;10.794;2024-03-17T12:42:29;13.40;98.50
60868;DHT22;46702;48.370;10.794;2024-03-17T12:45:01;13.40;97.90
60868;DHT22;46702;48.370;10.794;2024-03-17T12:51:17;13.70;99.90
60868;DHT22;46702;48.370;10.794;2024-03-17T12:54:15;13.60;99.90
60868;DHT22;46702;48.370;10.794;2024-03-17T12:56:45;13.60;99.90
60868;DHT22;46702;48.370;10.794;2024-03-17T13:00:16;13.80;99.90
60868;DHT22;46702;48.370;10.794;2024-03-17T13:03:33;13.90;99.90
60868;DHT22;46702;48.370;10.794;2024-03-17T13:06:03;13.80;95.90
60868;DHT22;46702;48.370;10.794;2024-03-17T13:08:32;13.60;96.00
60868;DHT22;46702;48.370;10.794;2024-03-17T13:10:58;13.40;97.90
60868;DHT22;46702;48.370;10.794;2024-03-17T13:13:24;13.40;94.50
60868;DHT22;46702;48.370;10.794;2024-03-17T13:15:53;13.30;98.40
60868;DHT22;46702;48.370;10.794;2024-03-17T13:18:23;13.30;93.70
60868;DHT22;46702;48.370;10.794;2024-03-17T13:24:25;13.10;94.60
60868;DHT22;46702;48.370;10.794;2024-03-17T13:27:03;13.20;97.30
60868;DHT22;46702;48.370;10.794;2024-03-17T13:32:27;13.30;99.90
60868;DHT22;46702;48.370;10.794;2024-03-17T13:38:19;13.20;99.80
60868;DHT22;46702;48.370;10.794;2024-03-17T13:40:52;13.20;95.30
60868;DHT22;46702;48.370;10.794;2024-03-17T13:43:21;13.30;99.20
60868;DHT22;46702;48.370;10.794;2024-03-17T13:45:59;13.40;99.90
60868;DHT22;46702;48.370;10.794;2024-03-17T13:48:38;13.50;99.90
60868;DHT22;46702;48.370;10.794;2024-03-17T13:51:17;13.40;98.20
60868;DHT22;46702;48.370;10.794;2024-03-17T13:53:46;13.40;99.40
60868;DHT22;46702;48.370;10.794;2024-03-17T13:56:13;13.40;99.90
60868;DHT22;46702;48.370;10.794;2024-03-17T13:58:39;13.30;99.10
60868;DHT22;46702;48.370;10.794;2024-03-17T14:01:04;13.30;98.20
60868;DHT22;46702;48.370;10.794;2024-03-17T14:03:30;13.30;99.90
60868;DHT22;46702;48.370;10.794;2024-03-17T14:05:57;13.30;99.10
60868;DHT22;46702;48.370;10.794;2024-03-17T14:08:23;13.10;96.70
60868;DHT22;46702;48.370;10.794;2024-03-17T14:10:49;13.00;98.30
60868;DHT22;46702;48.370;10.794;2024-03-17T14:13:15;13.00;98.70
60868;DHT22;46702;48.370;10.794;2024-03-17T14:15:40;13.10;98.60
60868;DHT22;46702;48.370;10.794;2024-03-17T14:18:06;13.10;99.90
60868;DHT22;46702;48.370;10.794;2024-03-17T14:20:32;13.20;99.90
60868;DHT22;46702;48.370;10.794;2024-03-17T14:22:58;13.30;99.90
60868;DHT22;46702;48.370;10.794;2024-03-17T14:25:24;13.30;99.60
60868;DHT22;46702;48.370;10.794;2024-03-17T14:27:52;13.10;96.90
60868;DHT22;46702;48.370;10.794;2024-03-17T14:30:19;13.10;99.90
60868;DHT22;46702;48.370;10.794;2024-03-17T14:32:45;13.20;99.60
60868;DHT22;46702;48.370;10.794;2024-03-17T14:35:13;13.30;99.90
60868;DHT22;46702;48.370;10.794;2024-03-17T14:37:40;13.30;99.90
60868;DHT22;46702;48.370;10.794;2024-03-17T14:40:09;13.30;97.00
60868;DHT22;46702;48.370;10.794;2024-03-17T14:42:42;13.30;98.50
60868;DHT22;46702;48.370;10.794;2024-03-17T14:45:08;13.30;98.50
60868;DHT22;46702;48.370;10.794;2024-03-17T14:47:34;13.30;96.30
60868;DHT22;46702;48.370;10.794;2024-03-17T14:50:00;13.20;96.50
60868;DHT22;46702;48.370;10.794;2024-03-17T14:52:26;13.00;95.90
60868;DHT22;46702;48.370;10.794;2024-03-17T14:54:51;13.00;96.80
60868;DHT22;46702;48.370;10.794;2024-03-17T14:57:19;12.90;97.70
60868;DHT22;46702;48.370;10.794;2024-03-17T14:59:46;13.00;98.90
60868;DHT22;46702;48.370;10.794;2024-03-17T15:02:12;13.00;97.60
60868;DHT22;46702;48.370;10.794;2024-03-17T15:04:37;13.00;98.50
60868;DHT22;46702;48.370;10.794;2024-03-17T15:07:03;13.00;99.90
60868;DHT22;46702;48.370;10.794;2024-03-17T15:09:29;13.10;99.90
60868;DHT22;46702;48.370;10.794;2024-03-17T15:11:54;13.00;99.90
60868;DHT22;46702;48.370;10.794;2024-03-17T15:14:21;13.00;99.90
60868;DHT22;46702;48.370;10.794;2024-03-17T15:16:47;13.10;99.90
60868;DHT22;46702;48.370;10.794;2024-03-17T15:19:12;13.00;99.90
60868;DHT22;46702;48.370;10.794;2024-03-17T15:21:40;12.90;99.90
60868;DHT22;46702;48.370;10.794;2024-03-17T15:24:06;12.90;99.90
60868;DHT22;46702;48.370;10.794;2024-03-17T15:26:35;12.90;99.90
60868;DHT22;46702;48.370;10.794;2024-03-17T15:29:01;12.80;99.30
60868;DHT22;46702;48.370;10.794;2024-03-17T15:31:32;12.90;99.90
60868;DHT22;46702;48.370;10.794;2024-03-17T15:33:57;12.90;99.90
60868;DHT22;46702;48.370;10.794;2024-03-17T15:36:23;12.90;99.90
60868;DHT22;46702;48.370;10.794;2024-03-17T15:38:53;12.80;99.90
60868;DHT22;46702;48.370;10.794;2024-03-17T15:41:19;12.80;99.90
60868;DHT22;46702;48.370;10.794;2024-03-17T15:43:44;12.80;99.90
60868;DHT22;46702;48.370;10.794;2024-03-17T15:48:39;12.80;99.90
60868;DHT22;46702;48.370;10.794;2024-03-17T15:51:05;12.80;99.90
60868;DHT22;46702;48.370;10.794;2024-03-17T15:53:31;12.80;99.90
60868;DHT22;46702;48.370;10.794;2024-03-17T15:55:58;12.70;99.90
60868;DHT22;46702;48.370;10.794;2024-03-17T15:58:28;12.70;99.90
60868;DHT22;46702;48.370;10.794;2024-03-17T16:00:54;12.70;99.90